sensor_id;sensor_type;location;lat;lon;timestamp;temperature;humidity
12700;DHT22;6414;49.570;6.060;2024-02-21T00:00:28;6.80;99.90
12700;DHT22;6414;49.570;6.060;2024-02-21T00:03:14;6.90;99.90
12700;DHT22;6414;49.570;6.060;2024-02-21T00:06:00;6.90;99.90
12700;DHT22;6414;49.570;6.060;2024-02-21T00:08:46;6.80;99.90
12700;DHT22;6414;49.570;6.060;2024-02-21T00:11:33;6.80;99.90
12700;DHT22;6414;49.570;6.060;2024-02-21T00:14:19;6.80;99.90
12700;DHT22;6414;49.570;6.060;2024-02-21T00:17:05;6.70;99.90
12700;DHT22;6414;49.570;6.060;2024-02-21T00:19:51;6.70;99.90
12700;DHT22;6414;49.570;6.060;2024-02-21T00:22:37;6.70;99.90
12700;DHT22;6414;49.570;6.060;2024-02-21T00:25:23;6.70;99.90
12700;DHT22;6414;49.570;6.060;2024-02-21T00:28:09;6.80;99.90
12700;DHT22;6414;49.570;6.060;2024-02-21T00:30:55;6.70;99.90
12700;DHT22;6414;49.570;6.060;2024-02-21T00:33:41;6.70;99.90
12700;DHT22;6414;49.570;6.060;2024-02-21T00:36:27;6.70;99.90
12700;DHT22;6414;49.570;6.060;2024-02-21T00:39:13;6.70;99.90
12700;DHT22;6414;49.570;6.060;2024-02-21T00:44:22;6.70;99.90
12700;DHT22;6414;49.570;6.060;2024-02-21T00:47:09;6.70;99.90
12700;DHT22;6414;49.570;6.060;2024-02-21T00:49:54;6.60;99.90
12700;DHT22;6414;49.570;6.060;2024-02-21T00:52:40;6.60;99.90
12700;DHT22;6414;49.570;6.060;2024-02-21T00:55:26;6.60;99.90
12700;DHT22;6414;49.570;6.060;2024-02-21T00:58:13;6.60;99.90
12700;DHT22;6414;49.570;6.060;2024-02-21T01:01:00;6.60;99.90
12700;DHT22;6414;49.570;6.060;2024-02-21T01:03:45;6.60;99.90
12700;DHT22;6414;49.570;6.060;2024-02-21T01:06:31;6.60;99.90
12700;DHT22;6414;49.570;6.060;2024-02-21T01:09:17;6.70;99.90
12700;DHT22;6414;49.570;6.060;2024-02-21T01:12:04;6.70;99.90
12700;DHT22;6414;49.570;6.060;2024-02-21T01:14:51;6.80;99.90
12700;DHT22;6414;49.570;6.060;2024-02-21T01:17:37;6.80;99.90
12700;DHT22;6414;49.570;6.060;2024-02-21T01:20:23;6.60;99.90
12700;DHT22;6414;49.570;6.060;2024-02-21T01:23:09;6.50;99.90
12700;DHT22;6414;49.570;6.060;2024-02-21T01:25:54;6.60;99.90
12700;DHT22;6414;49.570;6.060;2024-02-21T01:28:40;6.60;99.90
12700;DHT22;6414;49.570;6.060;2024-02-21T01:31:26;6.50;99.90
12700;DHT22;6414;49.570;6.060;2024-02-21T01:34:13;6.50;99.90
12700;DHT22;6414;49.570;6.060;2024-02-21T01:36:59;6.70;99.90
12700;DHT22;6414;49.570;6.060;2024-02-21T01:39:46;6.70;99.90
12700;DHT22;6414;49.570;6.060;2024-02-21T01:42:32;6.70;99.90
12700;DHT22;6414;49.570;6.060;2024-02-21T01:45:18;6.70;99.90
12700;DHT22;6414;49.570;6.060;2024-02-21T01:48:04;6.80;99.90
12700;DHT22;6414;49.570;6.060;2024-02-21T01:50:50;6.70;99.90
12700;DHT22;6414;49.570;6.060;2024-02-21T01:53:37;6.70;99.90
12700;DHT22;6414;49.570;6.060;2024-02-21T01:56:23;6.70;99.90
12700;DHT22;6414;49.570;6.060;2024-02-21T01:59:09;6.70;99.90
12700;DHT22;6414;49.570;6.060;2024-02-21T02:01:55;6.70;99.90
12700;DHT22;6414;49.570;6.060;2024-02-21T02:04:42;6.70;99.90
12700;DHT22;6414;49.570;6.060;2024-02-21T02:07:27;6.70;99.90
12700;DHT22;6414;49.570;6.060;2024-02-21T02:10:13;6.70;99.90
12700;DHT22;6414;49.570;6.060;2024-02-21T02:13:00;6.70;99.90
12700;DHT22;6414;49.570;6.060;2024-02-21T02:15:47;6.70;99.90
12700;DHT22;6414;49.570;6.060;2024-02-21T02:18:32;6.60;99.90
12700;DHT22;6414;49.570;6.060;2024-02-21T02:21:29;6.60;99.90
12700;DHT22;6414;49.570;6.060;2024-02-21T02:24:13;6.70;99.90
12700;DHT22;6414;49.570;6.060;2024-02-21T02:26:59;6.70;99.90
12700;DHT22;6414;49.570;6.060;2024-02-21T02:29:45;6.70;99.90
12700;DHT22;6414;49.570;6.060;2024-02-21T02:32:31;6.70;99.90
12700;DHT22;6414;49.570;6.060;2024-02-21T02:35:17;6.70;99.90
12700;DHT22;6414;49.570;6.060;2024-02-21T02:38:03;6.60;99.90
12700;DHT22;6414;49.570;6.060;2024-02-21T02:40:49;6.60;99.90
12700;DHT22;6414;49.570;6.060;2024-02-21T02:43:35;6.50;99.90
12700;DHT22;6414;49.570;6.060;2024-02-21T02:46:22;6.60;99.90
12700;DHT22;6414;49.570;6.060;2024-02-21T02:49:07;6.60;99.90
12700;DHT22;6414;49.570;6.060;2024-02-21T02:51:54;6.60;99.90
12700;DHT22;6414;49.570;6.060;2024-02-21T02:54:39;6.60;99.90
12700;DHT22;6414;49.570;6.060;2024-02-21T02:57:25;6.50;99.90
12700;DHT22;6414;49.570;6.060;2024-02-21T03:00:12;6.60;99.90
12700;DHT22;6414;49.570;6.060;2024-02-21T03:02:57;6.60;99.90
12700;DHT22;6414;49.570;6.060;2024-02-21T03:05:44;6.50;99.90
12700;DHT22;6414;49.570;6.060;2024-02-21T03:08:30;6.50;99.90
12700;DHT22;6414;49.570;6.060;2024-02-21T03:11:17;6.50;99.90
12700;DHT22;6414;49.570;6.060;2024-02-21T03:14:03;6.50;99.90
12700;DHT22;6414;49.570;6.060;2024-02-21T03:16:51;6.40;99.90
12700;DHT22;6414;49.570;6.060;2024-02-21T03:19:35;6.30;99.90
12700;DHT22;6414;49.570;6.060;2024-02-21T03:22:21;6.30;99.90
12700;DHT22;6414;49.570;6.060;2024-02-21T03:25:08;6.40;99.90
12700;DHT22;6414;49.570;6.060;2024-02-21T03:27:54;6.30;99.90
12700;DHT22;6414;49.570;6.060;2024-02-21T03:30:40;6.20;99.90
12700;DHT22;6414;49.570;6.060;2024-02-21T03:33:26;6.30;99.90
12700;DHT22;6414;49.570;6.060;2024-02-21T03:36:15;6.30;99.90
12700;DHT22;6414;49.570;6.060;2024-02-21T03:39:01;6.20;99.90
12700;DHT22;6414;49.570;6.060;2024-02-21T03:41:47;6.20;99.90
12700;DHT22;6414;49.570;6.060;2024-02-21T03:44:32;6.30;99.90
12700;DHT22;6414;49.570;6.060;2024-02-21T03:47:18;6.30;99.90
12700;DHT22;6414;49.570;6.060;2024-02-21T03:50:05;6.30;99.90
12700;DHT22;6414;49.570;6.060;2024-02-21T03:52:51;6.20;99.90
12700;DHT22;6414;49.570;6.060;2024-02-21T03:55:37;6.20;99.90
12700;DHT22;6414;49.570;6.060;2024-02-21T03:58:23;6.20;99.90
12700;DHT22;6414;49.570;6.060;2024-02-21T04:01:09;6.20;99.90
12700;DHT22;6414;49.570;6.060;2024-02-21T04:03:55;6.30;99.90
12700;DHT22;6414;49.570;6.060;2024-02-21T04:06:47;6.30;99.90
12700;DHT22;6414;49.570;6.060;2024-02-21T04:09:34;6.30;99.90
12700;DHT22;6414;49.570;6.060;2024-02-21T04:12:20;6.30;99.90
12700;DHT22;6414;49.570;6.060;2024-02-21T04:15:06;6.30;99.90
12700;DHT22;6414;49.570;6.060;2024-02-21T04:17:52;6.30;99.90
12700;DHT22;6414;49.570;6.060;2024-02-21T04:20:37;6.30;99.90
12700;DHT22;6414;49.570;6.060;2024-02-21T04:23:23;6.30;99.90
12700;DHT22;6414;49.570;6.060;2024-02-21T04:26:09;6.30;99.90
12700;DHT22;6414;49.570;6.060;2024-02-21T04:28:54;6.30;99.90
12700;DHT22;6414;49.570;6.060;2024-02-21T04:31:40;6.40;99.90
12700;DHT22;6414;49.570;6.060;2024-02-21T04:34:25;6.30;99.90
12700;DHT22;6414;49.570;6.060;2024-02-21T04:37:11;6.30;99.90
12700;DHT22;6414;49.570;6.060;2024-02-21T04:39:56;6.30;99.90
12700;DHT22;6414;49.570;6.060;2024-02-21T04:42:42;6.20;99.90
12700;DHT22;6414;49.570;6.060;2024-02-21T04:45:28;6.10;99.90
12700;DHT22;6414;49.570;6.060;2024-02-21T04:48:14;6.20;99.90
12700;DHT22;6414;49.570;6.060;2024-02-21T04:51:00;6.10;99.90
12700;DHT22;6414;49.570;6.060;2024-02-21T04:53:45;6.20;99.90
12700;DHT22;6414;49.570;6.060;2024-02-21T04:56:31;6.10;99.90
12700;DHT22;6414;49.570;6.060;2024-02-21T04:59:17;6.20;99.90
12700;DHT22;6414;49.570;6.060;2024-02-21T05:02:02;6.20;99.90
12700;DHT22;6414;49.570;6.060;2024-02-21T05:04:48;6.20;99.90
12700;DHT22;6414;49.570;6.060;2024-02-21T05:07:34;6.20;99.90
12700;DHT22;6414;49.570;6.060;2024-02-21T05:10:19;6.20;99.90
12700;DHT22;6414;49.570;6.060;2024-02-21T05:13:05;6.30;99.90
12700;DHT22;6414;49.570;6.060;2024-02-21T05:15:51;6.20;99.90
12700;DHT22;6414;49.570;6.060;2024-02-21T05:18:37;6.30;99.90
12700;DHT22;6414;49.570;6.060;2024-02-21T05:21:23;6.20;99.90
12700;DHT22;6414;49.570;6.060;2024-02-21T05:24:08;6.20;99.90
12700;DHT22;6414;49.570;6.060;2024-02-21T05:26:54;6.20;99.90
12700;DHT22;6414;49.570;6.060;2024-02-21T05:29:40;6.10;99.90
12700;DHT22;6414;49.570;6.060;2024-02-21T05:32:26;6.10;99.90
12700;DHT22;6414;49.570;6.060;2024-02-21T05:35:12;6.00;99.90
12700;DHT22;6414;49.570;6.060;2024-02-21T05:37:57;6.10;99.90
12700;DHT22;6414;49.570;6.060;2024-02-21T05:40:47;6.20;99.90
12700;DHT22;6414;49.570;6.060;2024-02-21T05:43:33;6.30;99.90
12700;DHT22;6414;49.570;6.060;2024-02-21T05:46:19;6.20;99.90
12700;DHT22;6414;49.570;6.060;2024-02-21T05:49:05;6.30;99.90
12700;DHT22;6414;49.570;6.060;2024-02-21T05:51:51;6.20;99.90
12700;DHT22;6414;49.570;6.060;2024-02-21T05:54:40;6.20;99.90
12700;DHT22;6414;49.570;6.060;2024-02-21T05:57:26;6.20;99.90
12700;DHT22;6414;49.570;6.060;2024-02-21T06:00:12;6.30;99.90
12700;DHT22;6414;49.570;6.060;2024-02-21T06:02:59;6.20;99.90
12700;DHT22;6414;49.570;6.060;2024-02-21T06:05:44;6.20;99.90
12700;DHT22;6414;49.570;6.060;2024-02-21T06:08:30;6.20;99.90
12700;DHT22;6414;49.570;6.060;2024-02-21T06:11:16;6.10;99.90
12700;DHT22;6414;49.570;6.060;2024-02-21T06:14:02;6.10;99.90
12700;DHT22;6414;49.570;6.060;2024-02-21T06:16:48;6.10;99.90
12700;DHT22;6414;49.570;6.060;2024-02-21T06:19:34;6.10;99.90
12700;DHT22;6414;49.570;6.060;2024-02-21T06:22:20;6.20;99.90
12700;DHT22;6414;49.570;6.060;2024-02-21T06:25:06;6.10;99.90
12700;DHT22;6414;49.570;6.060;2024-02-21T06:27:52;6.00;99.90
12700;DHT22;6414;49.570;6.060;2024-02-21T06:30:38;6.10;99.90
12700;DHT22;6414;49.570;6.060;2024-02-21T06:33:24;6.00;99.90
12700;DHT22;6414;49.570;6.060;2024-02-21T06:36:10;6.00;99.90
12700;DHT22;6414;49.570;6.060;2024-02-21T06:38:56;6.00;99.90
12700;DHT22;6414;49.570;6.060;2024-02-21T06:41:42;5.90;99.90
12700;DHT22;6414;49.570;6.060;2024-02-21T06:44:29;5.90;99.90
12700;DHT22;6414;49.570;6.060;2024-02-21T06:47:15;6.00;99.90
12700;DHT22;6414;49.570;6.060;2024-02-21T06:50:01;6.00;99.90
12700;DHT22;6414;49.570;6.060;2024-02-21T06:52:47;6.00;99.90
12700;DHT22;6414;49.570;6.060;2024-02-21T06:55:33;6.00;99.90
12700;DHT22;6414;49.570;6.060;2024-02-21T06:58:19;5.90;99.90
12700;DHT22;6414;49.570;6.060;2024-02-21T07:01:05;5.90;99.90
12700;DHT22;6414;49.570;6.060;2024-02-21T07:03:51;5.80;99.90
12700;DHT22;6414;49.570;6.060;2024-02-21T07:06:37;5.90;99.90
12700;DHT22;6414;49.570;6.060;2024-02-21T07:09:23;5.90;99.90
12700;DHT22;6414;49.570;6.060;2024-02-21T07:12:09;5.90;99.90
12700;DHT22;6414;49.570;6.060;2024-02-21T07:14:55;5.90;99.90
12700;DHT22;6414;49.570;6.060;2024-02-21T07:17:41;5.90;99.90
12700;DHT22;6414;49.570;6.060;2024-02-21T07:20:27;6.00;99.90
12700;DHT22;6414;49.570;6.060;2024-02-21T07:23:12;5.90;99.90
12700;DHT22;6414;49.570;6.060;2024-02-21T07:25:59;6.00;99.90
12700;DHT22;6414;49.570;6.060;2024-02-21T07:28:45;6.00;99.90
12700;DHT22;6414;49.570;6.060;2024-02-21T07:31:31;6.00;99.90
12700;DHT22;6414;49.570;6.060;2024-02-21T07:34:16;6.00;99.90
12700;DHT22;6414;49.570;6.060;2024-02-21T07:37:02;6.10;99.90
12700;DHT22;6414;49.570;6.060;2024-02-21T07:39:48;6.10;99.90
12700;DHT22;6414;49.570;6.060;2024-02-21T07:42:34;6.10;99.90
12700;DHT22;6414;49.570;6.060;2024-02-21T07:45:21;6.10;99.90
12700;DHT22;6414;49.570;6.060;2024-02-21T07:48:07;6.20;99.90
12700;DHT22;6414;49.570;6.060;2024-02-21T07:50:53;6.20;99.90
12700;DHT22;6414;49.570;6.060;2024-02-21T07:53:39;6.20;99.90
12700;DHT22;6414;49.570;6.060;2024-02-21T07:56:27;6.20;99.90
12700;DHT22;6414;49.570;6.060;2024-02-21T07:59:11;6.20;99.90
12700;DHT22;6414;49.570;6.060;2024-02-21T08:01:58;6.20;99.90
12700;DHT22;6414;49.570;6.060;2024-02-21T08:04:44;6.30;99.90
12700;DHT22;6414;49.570;6.060;2024-02-21T08:07:30;6.30;99.90
12700;DHT22;6414;49.570;6.060;2024-02-21T08:10:16;6.30;99.90
12700;DHT22;6414;49.570;6.060;2024-02-21T08:13:02;6.40;99.90
12700;DHT22;6414;49.570;6.060;2024-02-21T08:15:48;6.40;99.90
12700;DHT22;6414;49.570;6.060;2024-02-21T08:18:35;6.40;99.90
12700;DHT22;6414;49.570;6.060;2024-02-21T08:21:21;6.30;99.90
12700;DHT22;6414;49.570;6.060;2024-02-21T08:24:07;6.40;99.90
12700;DHT22;6414;49.570;6.060;2024-02-21T08:26:53;6.30;99.90
12700;DHT22;6414;49.570;6.060;2024-02-21T08:29:39;6.40;99.90
12700;DHT22;6414;49.570;6.060;2024-02-21T08:32:26;6.40;99.90
12700;DHT22;6414;49.570;6.060;2024-02-21T08:35:12;6.40;99.90
12700;DHT22;6414;49.570;6.060;2024-02-21T08:37:58;6.40;99.90
12700;DHT22;6414;49.570;6.060;2024-02-21T08:40:44;6.40;99.90
12700;DHT22;6414;49.570;6.060;2024-02-21T08:43:30;6.40;99.90
12700;DHT22;6414;49.570;6.060;2024-02-21T08:46:17;6.50;99.90
12700;DHT22;6414;49.570;6.060;2024-02-21T08:49:03;6.50;99.90
12700;DHT22;6414;49.570;6.060;2024-02-21T08:51:48;6.60;99.90
12700;DHT22;6414;49.570;6.060;2024-02-21T08:54:34;6.80;99.90
12700;DHT22;6414;49.570;6.060;2024-02-21T08:57:21;6.80;99.90
12700;DHT22;6414;49.570;6.060;2024-02-21T09:00:07;6.80;99.90
12700;DHT22;6414;49.570;6.060;2024-02-21T09:02:53;6.90;99.90
12700;DHT22;6414;49.570;6.060;2024-02-21T09:05:39;6.90;99.90
12700;DHT22;6414;49.570;6.060;2024-02-21T09:08:25;7.00;99.90
12700;DHT22;6414;49.570;6.060;2024-02-21T09:11:11;7.00;99.90
12700;DHT22;6414;49.570;6.060;2024-02-21T09:13:57;7.10;99.90
12700;DHT22;6414;49.570;6.060;2024-02-21T09:16:43;7.10;99.90
12700;DHT22;6414;49.570;6.060;2024-02-21T09:19:29;7.10;99.90
12700;DHT22;6414;49.570;6.060;2024-02-21T09:22:15;7.10;99.90
12700;DHT22;6414;49.570;6.060;2024-02-21T09:25:01;7.00;99.90
12700;DHT22;6414;49.570;6.060;2024-02-21T09:27:47;7.00;99.90
12700;DHT22;6414;49.570;6.060;2024-02-21T09:30:33;6.90;99.90
12700;DHT22;6414;49.570;6.060;2024-02-21T09:33:19;6.90;99.90
12700;DHT22;6414;49.570;6.060;2024-02-21T09:36:05;6.90;99.90
12700;DHT22;6414;49.570;6.060;2024-02-21T09:38:50;7.00;99.90
12700;DHT22;6414;49.570;6.060;2024-02-21T09:41:36;6.80;99.90
12700;DHT22;6414;49.570;6.060;2024-02-21T09:44:22;6.80;99.90
12700;DHT22;6414;49.570;6.060;2024-02-21T09:47:32;6.80;99.90
12700;DHT22;6414;49.570;6.060;2024-02-21T09:49:53;6.80;99.90
12700;DHT22;6414;49.570;6.060;2024-02-21T09:52:39;6.80;99.90
12700;DHT22;6414;49.570;6.060;2024-02-21T09:55:25;6.90;99.90
12700;DHT22;6414;49.570;6.060;2024-02-21T09:58:11;6.90;99.90
12700;DHT22;6414;49.570;6.060;2024-02-21T10:00:58;7.00;99.90
12700;DHT22;6414;49.570;6.060;2024-02-21T10:03:44;7.00;99.90
12700;DHT22;6414;49.570;6.060;2024-02-21T10:06:30;7.30;99.90
12700;DHT22;6414;49.570;6.060;2024-02-21T10:09:26;7.30;99.90
12700;DHT22;6414;49.570;6.060;2024-02-21T10:12:14;7.30;99.90
12700;DHT22;6414;49.570;6.060;2024-02-21T10:15:04;7.40;99.90
12700;DHT22;6414;49.570;6.060;2024-02-21T10:17:57;7.40;99.90
12700;DHT22;6414;49.570;6.060;2024-02-21T10:20:35;7.30;99.90
12700;DHT22;6414;49.570;6.060;2024-02-21T10:23:21;7.30;99.90
12700;DHT22;6414;49.570;6.060;2024-02-21T10:26:07;7.40;99.90
12700;DHT22;6414;49.570;6.060;2024-02-21T10:28:53;7.30;99.90
12700;DHT22;6414;49.570;6.060;2024-02-21T10:31:38;7.30;99.90
12700;DHT22;6414;49.570;6.060;2024-02-21T10:34:24;7.50;99.90
12700;DHT22;6414;49.570;6.060;2024-02-21T10:37:11;7.60;99.90
12700;DHT22;6414;49.570;6.060;2024-02-21T10:39:57;7.60;99.90
12700;DHT22;6414;49.570;6.060;2024-02-21T10:42:42;7.60;99.90
12700;DHT22;6414;49.570;6.060;2024-02-21T10:45:31;7.70;99.90
12700;DHT22;6414;49.570;6.060;2024-02-21T10:48:16;7.70;99.90
12700;DHT22;6414;49.570;6.060;2024-02-21T10:51:03;7.60;99.90
12700;DHT22;6414;49.570;6.060;2024-02-21T10:56:55;7.50;99.90
12700;DHT22;6414;49.570;6.060;2024-02-21T10:59:41;7.50;99.90
12700;DHT22;6414;49.570;6.060;2024-02-21T11:02:26;7.70;99.90
12700;DHT22;6414;49.570;6.060;2024-02-21T11:05:12;7.70;99.90
12700;DHT22;6414;49.570;6.060;2024-02-21T11:07:58;7.50;99.90
12700;DHT22;6414;49.570;6.060;2024-02-21T11:10:45;7.50;99.90
12700;DHT22;6414;49.570;6.060;2024-02-21T11:13:30;7.60;99.90
12700;DHT22;6414;49.570;6.060;2024-02-21T11:16:22;7.70;99.90
12700;DHT22;6414;49.570;6.060;2024-02-21T11:19:09;7.60;99.90
12700;DHT22;6414;49.570;6.060;2024-02-21T11:21:55;7.60;99.90
12700;DHT22;6414;49.570;6.060;2024-02-21T11:24:41;7.70;99.90
12700;DHT22;6414;49.570;6.060;2024-02-21T11:27:27;7.90;99.90
12700;DHT22;6414;49.570;6.060;2024-02-21T11:30:13;7.80;99.90
12700;DHT22;6414;49.570;6.060;2024-02-21T11:33:02;7.80;99.90
12700;DHT22;6414;49.570;6.060;2024-02-21T11:35:44;7.90;99.90
12700;DHT22;6414;49.570;6.060;2024-02-21T11:38:30;7.80;99.90
12700;DHT22;6414;49.570;6.060;2024-02-21T11:41:15;7.90;99.90
12700;DHT22;6414;49.570;6.060;2024-02-21T11:44:02;7.90;99.90
12700;DHT22;6414;49.570;6.060;2024-02-21T11:46:48;7.90;99.90
12700;DHT22;6414;49.570;6.060;2024-02-21T11:49:44;7.70;99.90
12700;DHT22;6414;49.570;6.060;2024-02-21T11:52:29;7.90;99.90
12700;DHT22;6414;49.570;6.060;2024-02-21T11:55:15;7.90;99.90
12700;DHT22;6414;49.570;6.060;2024-02-21T11:58:01;7.90;99.90
12700;DHT22;6414;49.570;6.060;2024-02-21T12:00:46;7.80;99.90
12700;DHT22;6414;49.570;6.060;2024-02-21T12:03:33;7.90;99.90
12700;DHT22;6414;49.570;6.060;2024-02-21T12:06:18;8.00;99.90
12700;DHT22;6414;49.570;6.060;2024-02-21T12:09:04;8.10;99.90
12700;DHT22;6414;49.570;6.060;2024-02-21T12:12:05;8.00;99.90
12700;DHT22;6414;49.570;6.060;2024-02-21T12:14:56;8.10;99.90
12700;DHT22;6414;49.570;6.060;2024-02-21T12:17:43;8.50;99.90
12700;DHT22;6414;49.570;6.060;2024-02-21T12:20:28;8.60;99.90
12700;DHT22;6414;49.570;6.060;2024-02-21T12:23:14;8.50;99.90
12700;DHT22;6414;49.570;6.060;2024-02-21T12:26:00;8.30;99.90
12700;DHT22;6414;49.570;6.060;2024-02-21T12:28:46;8.20;99.90
12700;DHT22;6414;49.570;6.060;2024-02-21T12:31:32;8.40;99.90
12700;DHT22;6414;49.570;6.060;2024-02-21T12:34:17;8.60;99.90
12700;DHT22;6414;49.570;6.060;2024-02-21T12:37:03;8.60;99.90
12700;DHT22;6414;49.570;6.060;2024-02-21T12:39:49;8.60;99.90
12700;DHT22;6414;49.570;6.060;2024-02-21T12:42:35;8.50;99.90
12700;DHT22;6414;49.570;6.060;2024-02-21T12:45:21;8.30;99.90
12700;DHT22;6414;49.570;6.060;2024-02-21T12:48:07;8.30;99.90
12700;DHT22;6414;49.570;6.060;2024-02-21T12:50:53;8.40;99.90
12700;DHT22;6414;49.570;6.060;2024-02-21T12:53:39;8.60;99.90
12700;DHT22;6414;49.570;6.060;2024-02-21T12:56:25;8.60;99.90
12700;DHT22;6414;49.570;6.060;2024-02-21T12:59:11;8.50;99.90
12700;DHT22;6414;49.570;6.060;2024-02-21T13:01:56;8.70;99.90
12700;DHT22;6414;49.570;6.060;2024-02-21T13:04:42;8.80;99.90
12700;DHT22;6414;49.570;6.060;2024-02-21T13:07:28;8.70;99.90
12700;DHT22;6414;49.570;6.060;2024-02-21T13:10:13;8.60;99.90
12700;DHT22;6414;49.570;6.060;2024-02-21T13:12:59;8.40;99.90
12700;DHT22;6414;49.570;6.060;2024-02-21T13:15:45;8.60;99.90
12700;DHT22;6414;49.570;6.060;2024-02-21T13:18:31;8.60;99.90
12700;DHT22;6414;49.570;6.060;2024-02-21T13:21:16;8.40;99.90
12700;DHT22;6414;49.570;6.060;2024-02-21T13:24:02;8.40;99.90
12700;DHT22;6414;49.570;6.060;2024-02-21T13:26:48;8.60;99.90
12700;DHT22;6414;49.570;6.060;2024-02-21T13:29:34;8.60;99.90
12700;DHT22;6414;49.570;6.060;2024-02-21T13:32:19;8.70;99.90
12700;DHT22;6414;49.570;6.060;2024-02-21T13:35:05;8.70;99.90
12700;DHT22;6414;49.570;6.060;2024-02-21T13:37:51;8.70;99.90
12700;DHT22;6414;49.570;6.060;2024-02-21T13:40:37;8.60;99.90
12700;DHT22;6414;49.570;6.060;2024-02-21T13:43:22;8.50;99.90
12700;DHT22;6414;49.570;6.060;2024-02-21T13:46:08;8.60;99.90
12700;DHT22;6414;49.570;6.060;2024-02-21T13:49:02;8.40;99.90
12700;DHT22;6414;49.570;6.060;2024-02-21T13:51:43;8.50;99.90
12700;DHT22;6414;49.570;6.060;2024-02-21T13:54:28;8.50;99.90
12700;DHT22;6414;49.570;6.060;2024-02-21T13:57:14;8.40;99.90
12700;DHT22;6414;49.570;6.060;2024-02-21T14:00:00;8.40;99.90
12700;DHT22;6414;49.570;6.060;2024-02-21T14:02:46;8.30;99.90
12700;DHT22;6414;49.570;6.060;2024-02-21T14:05:31;8.30;99.90
12700;DHT22;6414;49.570;6.060;2024-02-21T14:08:17;8.30;99.90
12700;DHT22;6414;49.570;6.060;2024-02-21T14:11:03;8.30;99.90
12700;DHT22;6414;49.570;6.060;2024-02-21T14:13:49;8.40;99.90
12700;DHT22;6414;49.570;6.060;2024-02-21T14:16:34;8.40;99.90
12700;DHT22;6414;49.570;6.060;2024-02-21T14:19:20;8.40;99.90
12700;DHT22;6414;49.570;6.060;2024-02-21T14:22:06;8.40;99.90
12700;DHT22;6414;49.570;6.060;2024-02-21T14:24:52;8.40;99.90
12700;DHT22;6414;49.570;6.060;2024-02-21T14:27:38;8.50;99.90
12700;DHT22;6414;49.570;6.060;2024-02-21T14:30:23;8.50;99.90
12700;DHT22;6414;49.570;6.060;2024-02-21T14:33:09;8.40;99.90
12700;DHT22;6414;49.570;6.060;2024-02-21T14:35:56;8.40;99.90
12700;DHT22;6414;49.570;6.060;2024-02-21T14:38:41;8.40;99.90
12700;DHT22;6414;49.570;6.060;2024-02-21T14:41:28;8.50;99.90
12700;DHT22;6414;49.570;6.060;2024-02-21T14:44:13;8.40;99.90
12700;DHT22;6414;49.570;6.060;2024-02-21T14:46:59;8.40;99.90
12700;DHT22;6414;49.570;6.060;2024-02-21T14:49:45;8.40;99.90
12700;DHT22;6414;49.570;6.060;2024-02-21T14:52:31;8.40;99.90
12700;DHT22;6414;49.570;6.060;2024-02-21T14:55:17;8.40;99.90
12700;DHT22;6414;49.570;6.060;2024-02-21T14:58:03;8.40;99.90
12700;DHT22;6414;49.570;6.060;2024-02-21T15:00:48;8.40;99.90
12700;DHT22;6414;49.570;6.060;2024-02-21T15:03:34;8.40;99.90
12700;DHT22;6414;49.570;6.060;2024-02-21T15:06:20;8.50;99.90
12700;DHT22;6414;49.570;6.060;2024-02-21T15:09:05;8.50;99.90
12700;DHT22;6414;49.570;6.060;2024-02-21T15:11:51;8.40;99.90
12700;DHT22;6414;49.570;6.060;2024-02-21T15:14:37;8.40;99.90
12700;DHT22;6414;49.570;6.060;2024-02-21T15:17:22;8.40;99.90
12700;DHT22;6414;49.570;6.060;2024-02-21T15:20:08;8.50;99.90
12700;DHT22;6414;49.570;6.060;2024-02-21T15:22:54;8.60;99.90
12700;DHT22;6414;49.570;6.060;2024-02-21T15:25:39;8.50;99.90
12700;DHT22;6414;49.570;6.060;2024-02-21T15:28:25;8.50;99.90
12700;DHT22;6414;49.570;6.060;2024-02-21T15:31:19;8.60;99.90
12700;DHT22;6414;49.570;6.060;2024-02-21T15:33:57;8.50;99.90
12700;DHT22;6414;49.570;6.060;2024-02-21T15:36:43;8.50;99.90
12700;DHT22;6414;49.570;6.060;2024-02-21T15:39:29;8.50;99.90
12700;DHT22;6414;49.570;6.060;2024-02-21T15:42:16;8.50;99.90
12700;DHT22;6414;49.570;6.060;2024-02-21T15:45:02;8.50;99.90
12700;DHT22;6414;49.570;6.060;2024-02-21T15:47:48;8.40;99.90
12700;DHT22;6414;49.570;6.060;2024-02-21T15:50:34;8.40;99.90
12700;DHT22;6414;49.570;6.060;2024-02-21T15:53:19;8.40;99.90
12700;DHT22;6414;49.570;6.060;2024-02-21T15:56:05;8.40;99.90
12700;DHT22;6414;49.570;6.060;2024-02-21T15:58:51;8.40;99.90
12700;DHT22;6414;49.570;6.060;2024-02-21T16:01:37;8.40;99.90
12700;DHT22;6414;49.570;6.060;2024-02-21T16:04:24;8.40;99.90
12700;DHT22;6414;49.570;6.060;2024-02-21T16:07:11;8.30;99.90
12700;DHT22;6414;49.570;6.060;2024-02-21T16:09:56;8.30;99.90
12700;DHT22;6414;49.570;6.060;2024-02-21T16:12:42;8.40;99.90
12700;DHT22;6414;49.570;6.060;2024-02-21T16:15:27;8.40;99.90
12700;DHT22;6414;49.570;6.060;2024-02-21T16:18:13;8.40;99.90
12700;DHT22;6414;49.570;6.060;2024-02-21T16:21:00;8.40;99.90
12700;DHT22;6414;49.570;6.060;2024-02-21T16:23:45;8.30;99.90
12700;DHT22;6414;49.570;6.060;2024-02-21T16:26:34;8.40;99.90
12700;DHT22;6414;49.570;6.060;2024-02-21T16:29:22;8.40;99.90
12700;DHT22;6414;49.570;6.060;2024-02-21T16:32:06;8.40;99.90
12700;DHT22;6414;49.570;6.060;2024-02-21T16:34:52;8.40;99.90
12700;DHT22;6414;49.570;6.060;2024-02-21T16:37:39;8.40;99.90
12700;DHT22;6414;49.570;6.060;2024-02-21T16:40:24;8.30;99.90
12700;DHT22;6414;49.570;6.060;2024-02-21T16:43:11;8.30;99.90
12700;DHT22;6414;49.570;6.060;2024-02-21T16:45:55;8.30;99.90
12700;DHT22;6414;49.570;6.060;2024-02-21T16:48:42;8.30;99.90
12700;DHT22;6414;49.570;6.060;2024-02-21T16:51:28;8.30;99.90
12700;DHT22;6414;49.570;6.060;2024-02-21T16:54:20;8.40;99.90
12700;DHT22;6414;49.570;6.060;2024-02-21T16:56:59;8.30;99.90
12700;DHT22;6414;49.570;6.060;2024-02-21T16:59:45;8.30;99.90
12700;DHT22;6414;49.570;6.060;2024-02-21T17:02:30;8.30;99.90
12700;DHT22;6414;49.570;6.060;2024-02-21T17:05:16;8.30;99.90
12700;DHT22;6414;49.570;6.060;2024-02-21T17:08:02;8.30;99.90
12700;DHT22;6414;49.570;6.060;2024-02-21T17:10:47;8.30;99.90
12700;DHT22;6414;49.570;6.060;2024-02-21T17:13:33;8.30;99.90
12700;DHT22;6414;49.570;6.060;2024-02-21T17:16:19;8.30;99.90
12700;DHT22;6414;49.570;6.060;2024-02-21T17:19:05;8.30;99.90
12700;DHT22;6414;49.570;6.060;2024-02-21T17:21:51;8.40;99.90
12700;DHT22;6414;49.570;6.060;2024-02-21T17:24:37;8.30;99.90
12700;DHT22;6414;49.570;6.060;2024-02-21T17:27:23;8.30;99.90
12700;DHT22;6414;49.570;6.060;2024-02-21T17:30:09;8.30;99.90
12700;DHT22;6414;49.570;6.060;2024-02-21T17:32:54;8.20;99.90
12700;DHT22;6414;49.570;6.060;2024-02-21T17:35:40;8.20;99.90
12700;DHT22;6414;49.570;6.060;2024-02-21T17:38:26;8.10;99.90
12700;DHT22;6414;49.570;6.060;2024-02-21T17:41:11;8.00;99.90
12700;DHT22;6414;49.570;6.060;2024-02-21T17:43:57;7.90;99.90
12700;DHT22;6414;49.570;6.060;2024-02-21T17:46:43;7.90;99.90
12700;DHT22;6414;49.570;6.060;2024-02-21T17:49:29;7.80;99.90
12700;DHT22;6414;49.570;6.060;2024-02-21T17:52:15;7.60;99.90
12700;DHT22;6414;49.570;6.060;2024-02-21T17:55:01;7.60;99.90
12700;DHT22;6414;49.570;6.060;2024-02-21T17:57:46;7.50;99.90
12700;DHT22;6414;49.570;6.060;2024-02-21T18:00:32;7.40;99.90
12700;DHT22;6414;49.570;6.060;2024-02-21T18:03:18;7.40;99.90
12700;DHT22;6414;49.570;6.060;2024-02-21T18:06:04;7.40;99.90
12700;DHT22;6414;49.570;6.060;2024-02-21T18:08:50;7.30;99.90